Etusivu
METAR-TAF:

METAR-TAF

Lentoasemat :

Esbjerg, Tanska

Leveyspiiri: 55-32N, Pituuspiiri: 008-34E, korkeus merenpinnasta: 30 m

Tämänhetkinen sää

Tämä raportti tehtiin 21 minuuttia sitten, kello 14.20 UTC
Tuuli 8 kn lännestä/luoteesta
Lämpötila 15°C
Kosteus 82%
Ilmanpaine 1016 hPa
Näkyvyys 10 km tai enemmän

METAR: EKEB 201420Z AUTO 30008KT 9999NDV FEW019/// SCT030/// BKN056/// BKN095/// 15/12 Q1016

Aika: 16:41 (14:41 UTC)

Sääennuste

Tämä raportti tehtiin 3 tuntia ja 18 minuuttia sitten, kello 11.23 UTC
Ennuste voimassa 20. päivästä klo 12 UTC - 20. päivään klo 21 UTC
Tuuli 6 kn lännestä
Näkyvyys 10 km tai enemmän
Hajanaisia pilviä 1000 ft:n korkeudessa
Hajonneita pilviä 3000 ft:n korkeudessa
Ajoittain
20. päivästä klo 12 UTC - 20. päivään klo 18 UTC
Hajonneita pilviä 1000 ft:n korkeudessa
Hajanaisia pilviä 2000 ft:n korkeudessa, Kasvava cumulus-pilvi.
vesikuuroja

TAF: EKEB 201123Z 2012/2021 28006KT 9999 SCT010 BKN030 TEMPO 2012/2018 SHRA BKN010 SCT020TCU

Säähavainnot ja -ennusteet yli 4000 lentoasemalta (METAR- ja TAF-raportit).

Käytössä olevat sääasemat on merkitty karttaan keltaisilla ja punaisilla pisteillä.

Aseta hiiri pisteen päälle nähdäksesi sääaseman nimen.

Klikkaa sitten nähdäksesi säähavainnot ja -ennusteet.

Kartan vaihtaminen: klikkaa mustalla rastilla varustettuja vihreitä pisteitä, niin voit zoomata sisään; viivalla varustettua vihreää pistettä, niin voit zoomata ulos tai vihreitä nuolia, niin pääset viereisille kartoille.


METAR-TAF: